createdAt,value
2017-06-19T00:03:13.908Z,1016
2017-06-19T00:13:28.616Z,1016
2017-06-19T00:23:43.411Z,1016
2017-06-19T00:33:58.933Z,1015.9
2017-06-19T00:44:13.618Z,1015.8
2017-06-19T00:54:29.293Z,1015.8
2017-06-19T01:04:43.343Z,1015.7
2017-06-19T01:14:57.423Z,1015.7
2017-06-19T01:25:11.866Z,1015.6
2017-06-19T01:35:25.683Z,1015.6
2017-06-19T01:45:40.049Z,1015.7
2017-06-19T01:55:54.846Z,1015.5
2017-06-19T02:06:08.909Z,1015.4
2017-06-19T02:16:23.713Z,1015.4
2017-06-19T02:26:39.258Z,1015.4
2017-06-19T02:36:53.299Z,1015.5
2017-06-19T02:47:08.127Z,1015.4
2017-06-19T02:57:23.627Z,1015.4
2017-06-19T03:07:38.544Z,1015.3
2017-06-19T03:17:52.490Z,1015.2
2017-06-19T03:28:08.150Z,1015.2
2017-06-19T03:38:22.872Z,1015.2
2017-06-19T03:48:36.876Z,1015.2
2017-06-19T03:58:51.156Z,1015.3
2017-06-19T04:09:06.263Z,1015.3
2017-06-19T04:19:20.372Z,1015.3
2017-06-19T04:29:34.162Z,1015.3
2017-06-19T04:39:49.915Z,1015.4
2017-06-19T04:50:04.436Z,1015.3
2017-06-19T05:00:20.183Z,1015.3
2017-06-19T05:10:35.247Z,1015.3
2017-06-19T05:20:49.660Z,1015.2
2017-06-19T05:31:04.650Z,1015.3
2017-06-19T05:41:19.938Z,1015.3
2017-06-19T05:51:35.668Z,1015.4
2017-06-19T06:01:50.512Z,1015.4
2017-06-19T06:12:05.334Z,1015.3
2017-06-19T06:22:20.809Z,1015.3
2017-06-19T06:32:35.011Z,1015.3
2017-06-19T06:42:50.321Z,1015.2
2017-06-19T06:53:05.263Z,1015.2
2017-06-19T07:03:19.980Z,1015.2
2017-06-19T07:13:35.712Z,1015.2
2017-06-19T07:23:49.754Z,1015.2
2017-06-19T07:34:05.174Z,1015.2
2017-06-19T07:44:20.814Z,1015.2
2017-06-19T07:54:35.030Z,1015.1
2017-06-19T08:04:49.225Z,1015.1
2017-06-19T08:15:04.593Z,1015.1
2017-06-19T08:25:18.762Z,1015.1
2017-06-19T08:35:33.984Z,1015.1
2017-06-19T08:45:49.985Z,1014.9
2017-06-19T08:56:05.016Z,1014.7
2017-06-19T09:06:20.013Z,1014.6
2017-06-19T09:16:34.703Z,1014.5
2017-06-19T09:26:50.130Z,1014.5
2017-06-19T09:37:06.133Z,1014.5
2017-06-19T09:47:21.006Z,1014.4
2017-06-19T09:57:36.046Z,1014.4
2017-06-19T10:07:51.857Z,1014.4
2017-06-19T10:18:06.094Z,1014.4
2017-06-19T10:28:20.969Z,1014.2
2017-06-19T10:38:35.222Z,1014
2017-06-19T10:48:49.620Z,1014
2017-06-19T10:59:05.051Z,1013.8
2017-06-19T11:09:20.831Z,1013.7
2017-06-19T11:19:36.179Z,1013.7
2017-06-19T11:29:52.125Z,1013.6
2017-06-19T11:40:06.183Z,1013.5
2017-06-19T11:50:20.501Z,1013.5
2017-06-19T12:00:34.960Z,1013.4
2017-06-19T12:10:50.335Z,1013.2
2017-06-19T12:21:04.465Z,1013.2
2017-06-19T12:31:20.118Z,1013.3
2017-06-19T12:41:35.857Z,1013.2
2017-06-19T12:51:49.918Z,1013.6
2017-06-19T13:02:04.970Z,1013.4
2017-06-19T13:12:19.950Z,1013.1
2017-06-19T13:22:35.913Z,1013.3
2017-06-19T13:32:51.087Z,1013.3
2017-06-19T13:43:06.323Z,1013.5
2017-06-19T13:53:20.895Z,1013.1
2017-06-19T14:03:36.463Z,1012.6
2017-06-19T14:13:50.727Z,1012.1
2017-06-19T14:24:05.956Z,1011.9
2017-06-19T14:34:21.690Z,1011.5
2017-06-19T14:44:36.392Z,1011.5
2017-06-19T14:54:51.478Z,1011.4
2017-06-19T15:05:05.562Z,1011.3
2017-06-19T15:15:20.239Z,1011.2
2017-06-19T15:25:34.817Z,1011.1
2017-06-19T15:35:50.115Z,1011.1
2017-06-19T15:46:06.086Z,1011
2017-06-19T15:56:21.279Z,1011
2017-06-19T16:06:36.026Z,1010.9
2017-06-19T16:16:50.473Z,1010.8
2017-06-19T16:27:04.653Z,1010.7
2017-06-19T16:37:19.029Z,1010.6
2017-06-19T16:47:34.913Z,1010.5
2017-06-19T16:57:50.255Z,1010.5
2017-06-19T17:08:05.197Z,1010.4
2017-06-19T17:18:19.184Z,1010.4
2017-06-19T17:28:34.593Z,1010.4
2017-06-19T17:38:48.740Z,1010.4
2017-06-19T17:49:02.986Z,1010.4
2017-06-19T17:59:18.633Z,1010.4
2017-06-19T18:09:32.934Z,1010.3
2017-06-19T18:19:47.361Z,1010.3
2017-06-19T18:30:01.597Z,1010.3
2017-06-19T18:40:16.902Z,1010.2
2017-06-19T18:50:32.468Z,1010.1
2017-06-19T19:00:46.650Z,1010
2017-06-19T19:11:02.338Z,1010
2017-06-19T19:21:17.208Z,1009.9
2017-06-19T19:31:31.517Z,1010
2017-06-19T19:41:45.461Z,1010
2017-06-19T19:52:01.053Z,1010
2017-06-19T20:02:16.141Z,1010.1
2017-06-19T20:12:31.087Z,1010.1
2017-06-19T20:22:46.860Z,1010.1
2017-06-19T20:33:02.041Z,1010.1
2017-06-19T20:43:16.766Z,1010.1
2017-06-19T20:53:31.087Z,1010.1
2017-06-19T21:03:45.936Z,1010.1
2017-06-19T21:14:00.909Z,1010.1
2017-06-19T21:24:15.382Z,1010.1
2017-06-19T21:34:30.658Z,1010
2017-06-19T21:44:44.594Z,1010
2017-06-19T21:54:58.500Z,1010
2017-06-19T22:05:12.515Z,1009.9
2017-06-19T22:15:27.375Z,1009.9
2017-06-19T22:25:42.170Z,1009.9
2017-06-19T22:35:57.046Z,1009.9
2017-06-19T22:46:12.791Z,1009.9
2017-06-19T22:56:27.461Z,1009.8
2017-06-19T23:06:43.103Z,1009.8
2017-06-19T23:16:58.639Z,1009.7
2017-06-19T23:27:13.818Z,1009.6
2017-06-19T23:37:28.792Z,1009.6
2017-06-19T23:47:44.173Z,1009.6
2017-06-19T23:57:58.685Z,1009.5
